Nearby METAR Reports

 

KSJC - San Jose, California, USA
Distance from station: NE 9mi, 14km
Updated: Thu, 30-Jul-2015 2:53am PDT
Clear
Clear
 Wind from WNW
Wind: WNW 3 mph , 6 km/h
Temperature: 64°F , 18°C
Dew Point: 59°F , 15°C
Humidity: 83%
Barometer: 29.97 inHg , 1014.9 hPa
Clouds: Clear
Visibility: 10 miles , 16 km
2015/07/30 09:53 KSJC 300953Z AUTO 30003KT 10SM CLR 18/15 A2997 RMK AO2 SLP146 T01780150
KNUQ - Moffett Nas/Mtn, California, USA
Distance from station: N 9mi, 14km
Updated: Thu, 30-Jul-2015 2:56am PDT
Mostly cloudy
Mostly cloudy
 Wind from NNW
Wind: NNW 6 mph , 9 km/h
Temperature: 64°F , 18°C
Dew Point: 61°F , 16°C
Humidity: 88%
Barometer: 29.97 inHg , 1014.9 hPa
Clouds: Mostly cloudy
Visibility: 10 miles , 16 km
Cloud details: Mostly cloudy 1000 ft
2015/07/30 09:56 KNUQ 300956Z AUTO 34005KT 10SM BKN010 18/16 A2997 RMK AO2 SLP152 T01780161 TSNO
 
KPAO - Palo Alto, California, USA
Distance from station: NNW 14mi, 23km
Updated: Wed, 29-Jul-2015 8:47pm PDT
NOT Current
Clear
Clear
 Wind from NNW
Wind: NNW 12 mph , 19 km/h
Temperature: 68°F , 20°C
Dew Point: 63°F , 17°C
Humidity: 83%
Barometer: 29.93 inHg , 1013.5 hPa
Clouds: Clear
Visibility: 10 miles , 16 km
2015/07/30 03:47 KPAO 300347Z 34010KT 10SM SKC 20/17 A2993 RMK LAST
KRHV - San Jose/Reid, California, USA
Distance from station: ENE 12mi, 19km
Updated: Wed, 29-Jul-2015 9:48pm PDT
NOT Current
Clear
Clear
 Wind from W
Wind: W 10 mph , 17 km/h
Temperature: 72°F , 22°C
Dew Point: 55°F , 13°C
Humidity: 57%
Barometer: 29.97 inHg , 1014.9 hPa
Clouds: Clear
Visibility: 10 miles , 16 km
2015/07/30 04:48 KRHV 300448Z 28009KT 10SM SKC 22/13 A2997 RMK TOWER CLOSED UNTIL 0700L
 
KOAK - Oakland, California, USA
Distance from station: NNW 31mi, 50km
Updated: Thu, 30-Jul-2015 2:53am PDT
Mostly cloudy
Mostly cloudy
 Wind from NW
Wind: NW 9 mph , 15 km/h
Temperature: 61°F , 16°C
Dew Point: 57°F , 14°C
Humidity: 88%
Barometer: 29.97 inHg , 1014.9 hPa
Clouds: Mostly cloudy
Visibility: 10 miles , 16 km
Cloud details: Mostly cloudy 700 ft
2015/07/30 09:53 KOAK 300953Z 31008KT 10SM BKN007 16/14 A2997 RMK AO2 SLP148 T01610139
KSQL - San Carlos Airpo, California, USA
Distance from station: NW 21mi, 34km
Updated: Thu, 30-Jul-2015 2:55am PDT
Overcast
Overcast
 Wind from NW
Wind: NW 5 mph , 7 km/h
Temperature: 63°F , 17°C
Dew Point: 57°F , 14°C
Humidity: 83%
Barometer: 29.98 inHg , 1015.2 hPa
Clouds: Overcast
Visibility: 10 miles , 16 km
Cloud details: Overcast 1300 ft
2015/07/30 09:55 KSQL 300955Z AUTO 32004KT 10SM OVC013 17/14 A2998 RMK AO2
 
KSFO - San Francisco, California, USA
Distance from station: NW 30mi, 49km
Updated: Thu, 30-Jul-2015 2:56am PDT
Few Clouds
Few Clouds
 Wind from W
Wind: W 8 mph , 13 km/h
Temperature: 61°F , 16°C
Dew Point: 57°F , 14°C
Humidity: 88%
Barometer: 29.97 inHg , 1014.9 hPa
Clouds: Few Clouds
Visibility: 10 miles , 16 km
Cloud details: Few Clouds 400 ft
2015/07/30 09:56 KSFO 300956Z 27007KT 10SM FEW004 16/14 A2997 RMK AO2 SLP150 T01560139
KE16 - San Martin, California, USA
Distance from station: ESE 27mi, 43km
Updated: Thu, 30-Jul-2015 2:55am PDT
Overcast
Overcast
 Wind from ESE
Wind: ESE 3 mph , 6 km/h
Temperature: 59°F , 15°C
Dew Point: 59°F , 15°C
Humidity: 100%
Barometer: 30.00 inHg , 1015.9 hPa
Clouds: Overcast
Visibility: 10 miles , 16 km
Cloud details: Few Clouds 400 ft
Few Clouds 1800 ft
Overcast 2600 ft
2015/07/30 09:55 KE16 300955Z AUTO 11003KT 10SM FEW004 FEW018 OVC026 15/15 A3000 RMK AO2 SOUTH WIND SOCK OUT OF SERVICE
 
KWVI - Watsonville, California, USA
Distance from station: SSE 27mi, 44km
Updated: Thu, 30-Jul-2015 2:53am PDT
Overcast
Overcast
 Wind from calm
Wind: Calm
Temperature: 61°F , 16°C
Dew Point: 57°F , 14°C
Humidity: 88%
Barometer: 29.99 inHg , 1015.6 hPa
Clouds: Overcast
Visibility: 8 miles , 13 km
Cloud details: Overcast 500 ft
2015/07/30 09:53 KWVI 300953Z AUTO 00000KT 8SM OVC005 16/14 A2999 RMK AO2 SLP155 T01560144
KHAF - Half Moon Bay, California, USA
Distance from station: WNW 31mi, 50km
Updated: Sun, 26-Jul-2015 11:55pm PDT
NOT Current
Mist, Mostly cloudy
Mist, Mostly cloudy
 Wind from calm
Wind: Calm
Temperature: 55°F , 13°C
Dew Point: 54°F , 12°C
Humidity: 94%
Barometer: 29.96 inHg , 1014.6 hPa
Summary: Mist
Clouds: Mostly cloudy
Visibility: 4 miles , 6 km
Cloud details: Mostly cloudy 1300 ft
2015/07/27 06:55 KHAF 270655Z AUTO 00000KT 4SM BR BKN013 13/12 A2996 RMK AO2
 
KHWD - Hayward, California, USA
Distance from station: N 28mi, 44km
Updated: Thu, 30-Jul-2015 2:54am PDT
Partly cloudy
Partly cloudy
 Wind from NW
Wind: NW 6 mph , 9 km/h
Temperature: 61°F , 16°C
Dew Point: 57°F , 14°C
Humidity: 88%
Barometer: 29.97 inHg , 1014.9 hPa
Clouds: Partly cloudy
Visibility: 7 miles , 11 km
Cloud details: Partly cloudy 900 ft
2015/07/30 09:54 KHWD 300954Z AUTO 32005KT 7SM SCT009 16/14 A2997 RMK AO2 SLP158 T01610144
KLVK - Livermore, California, USA
Distance from station: NNE 31mi, 51km
Updated: Thu, 30-Jul-2015 2:53am PDT
Clear
Clear
 Wind from WNW
Wind: WNW 8 mph , 13 km/h
Temperature: 68°F , 20°C
Dew Point: 55°F , 13°C
Humidity: 64%
Barometer: 29.94 inHg , 1013.9 hPa
Clouds: Clear
Visibility: 10 miles , 16 km
2015/07/30 09:53 KLVK 300953Z AUTO 30007KT 10SM CLR 20/13 A2994 RMK AO2 SLP134 T02000133